Time;durP1;ratioP1;P1;durP2;ratioP2;P2;SDS_P1;SDS_P2;PMS_P1;PMS_P2;Temp;Humidity;BMP_temperature;BMP_pressure;BME280_temperature;BME280_humidity;BME280_pressure;Samples;Min_cycle;Max_cycle;Signal;HPM_P1;HPM_P2
2023/03/04 00:01:50;;;;;;;1.13;1.13;;;;;;;;;;7400011;19;20137;-91
2023/03/04 00:04:17;;;;;;;1.67;1.57;;;;;;;;;;7395524;19;20465;-90
2023/03/04 00:06:43;;;;;;;4.60;1.97;;;;;;;;;;7407039;19;20149;-89
2023/03/04 00:09:10;;;;;;;3.00;2.13;;;;;;;;;;7427548;19;20145;-92
2023/03/04 00:11:36;;;;;;;2.50;2.40;;;;;;;;;;7430167;19;20121;-93
2023/03/04 00:14:03;;;;;;;5.33;3.03;;;;;;;;;;7428806;19;20117;-93
2023/03/04 00:16:29;;;;;;;4.30;2.00;;;;;;;;;;7428264;19;20121;-91
2023/03/04 00:18:56;;;;;;;2.73;2.57;;;;;;;;;;7428313;19;20138;-92
2023/03/04 00:21:23;;;;;;;1.53;1.53;;;;;;;;;;7427856;19;20144;-92
2023/03/04 00:23:50;;;;;;;3.67;1.90;;;;;;;;;;7424442;19;20165;-91
2023/03/04 00:26:17;;;;;;;10.67;1.97;;;;;;;;;;7412859;19;20574;-91
2023/03/04 00:28:43;;;;;;;2.97;2.77;;;;;;;;;;7391814;19;20145;-91
2023/03/04 00:31:10;;;;;;;5.43;2.37;;;;;;;;;;7393234;19;20213;-91
2023/03/04 00:33:37;;;;;;;3.17;2.93;;;;;;;;;;7392896;19;20146;-93
2023/03/04 00:36:04;;;;;;;1.73;1.63;;;;;;;;;;7396355;19;20597;-91
2023/03/04 00:38:30;;;;;;;2.00;1.53;;;;;;;;;;7392920;19;20645;-91
2023/03/04 00:40:57;;;;;;;1.50;1.50;;;;;;;;;;7394978;19;20125;-91
2023/03/04 00:43:23;;;;;;;0.83;0.83;;;;;;;;;;7394215;19;20121;-91
2023/03/04 00:45:50;;;;;;;1.73;1.63;;;;;;;;;;7395314;19;20129;-92
2023/03/04 00:48:16;;;;;;;3.10;2.90;;;;;;;;;;7392851;19;20610;-90
2023/03/04 00:50:43;;;;;;;3.53;2.57;;;;;;;;;;7395153;19;20136;-92
2023/03/04 00:53:10;;;;;;;2.63;1.97;;;;;;;;;;7395781;19;20137;-92
2023/03/04 00:55:36;;;;;;;2.90;2.30;;;;;;;;;;7394871;19;20141;-91
2023/03/04 00:58:03;;;;;;;2.07;1.87;;;;;;;;;;7392765;19;20161;-90
2023/03/04 01:00:29;;;;;;;2.27;2.17;;;;;;;;;;7395061;19;20129;-91
2023/03/04 01:02:56;;;;;;;1.70;1.60;;;;;;;;;;7393755;19;20139;-91
2023/03/04 01:05:22;;;;;;;2.43;2.23;;;;;;;;;;7394254;19;20125;-93
2023/03/04 01:07:49;;;;;;;3.23;3.03;;;;;;;;;;7393265;19;20148;-91
2023/03/04 01:10:16;;;;;;;3.17;2.57;;;;;;;;;;7395931;19;20125;-91
2023/03/04 01:12:42;;;;;;;1.80;1.67;;;;;;;;;;7394031;19;20133;-91
2023/03/04 01:15:11;;;;;;;3.37;2.60;;;;;;;;;;7393876;19;20129;-91
2023/03/04 01:17:38;;;;;;;5.27;2.90;;;;;;;;;;7392928;19;20149;-90
2023/03/04 01:20:06;;;;;;;2.37;2.27;;;;;;;;;;7393800;19;20129;-93
2023/03/04 01:22:32;;;;;;;1.50;1.40;;;;;;;;;;7393176;19;20156;-92
2023/03/04 01:24:59;;;;;;;2.93;1.53;;;;;;;;;;7394285;19;20137;-90
2023/03/04 01:27:25;;;;;;;0.60;0.60;;;;;;;;;;7393238;19;20157;-92
2023/03/04 01:29:52;;;;;;;3.47;2.03;;;;;;;;;;7393830;19;20141;-93
2023/03/04 01:32:18;;;;;;;2.13;2.03;;;;;;;;;;7394630;19;20568;-93
2023/03/04 01:34:45;;;;;;;1.10;0.90;;;;;;;;;;7393353;19;20137;-91
2023/03/04 01:37:14;;;;;;;1.77;1.67;;;;;;;;;;7393677;19;20156;-91
2023/03/04 01:39:41;;;;;;;2.37;2.20;;;;;;;;;;7395085;19;20121;-92
2023/03/04 01:42:19;;;;;;;1.93;1.83;;;;;;;;;;7394492;19;20149;-88
2023/03/04 01:44:46;;;;;;;1.73;1.27;;;;;;;;;;7392722;19;20136;-92
2023/03/04 01:47:13;;;;;;;0.90;0.90;;;;;;;;;;7393947;19;20137;-92
2023/03/04 01:49:40;;;;;;;1.77;1.67;;;;;;;;;;7394673;19;20129;-93
2023/03/04 01:52:11;;;;;;;1.10;1.10;;;;;;;;;;7394250;19;20662;-92
2023/03/04 01:54:39;;;;;;;2.07;1.97;;;;;;;;;;7395187;19;20121;-91
2023/03/04 01:57:15;;;;;;;0.97;0.97;;;;;;;;;;7394330;19;20140;-92
2023/03/04 01:59:42;;;;;;;1.43;1.33;;;;;;;;;;7394108;19;20556;-92
2023/03/04 02:02:08;;;;;;;6.50;1.70;;;;;;;;;;7400198;19;20136;-91
2023/03/04 02:04:35;;;;;;;3.40;2.47;;;;;;;;;;7399515;19;20139;-90
2023/03/04 02:07:03;;;;;;;1.43;1.37;;;;;;;;;;7401905;19;20161;-92
2023/03/04 02:09:30;;;;;;;2.50;2.30;;;;;;;;;;7402294;19;20129;-91
2023/03/04 02:11:57;;;;;;;3.60;1.53;;;;;;;;;;7401501;19;20124;-92
2023/03/04 02:14:24;;;;;;;7.53;1.77;;;;;;;;;;7401651;19;20160;-92
2023/03/04 02:16:50;;;;;;;2.70;1.63;;;;;;;;;;7401137;19;20125;-91
2023/03/04 02:19:39;;;;;;;2.17;2.07;;;;;;;;;;7401239;19;20139;-92
2023/03/04 02:22:06;;;;;;;0.60;0.60;;;;;;;;;;7401233;19;20153;-92
2023/03/04 02:24:41;;;;;;;1.07;1.07;;;;;;;;;;7399074;19;20129;-89
2023/03/04 02:27:08;;;;;;;1.80;1.70;;;;;;;;;;7399321;19;20192;-91
2023/03/04 02:29:34;;;;;;;0.47;0.47;;;;;;;;;;7402169;19;20153;-90
2023/03/04 02:32:01;;;;;;;0.60;0.50;;;;;;;;;;7400772;19;20170;-89
2023/03/04 02:34:30;;;;;;;0.50;0.50;;;;;;;;;;7398940;19;20132;-91
2023/03/04 02:36:56;;;;;;;3.97;1.63;;;;;;;;;;7398182;19;20169;-91
2023/03/04 02:39:33;;;;;;;0.30;0.30;;;;;;;;;;7395853;19;20125;-92
2023/03/04 02:42:01;;;;;;;0.43;0.43;;;;;;;;;;7396482;19;20143;-91
2023/03/04 02:44:29;;;;;;;1.43;1.33;;;;;;;;;;7393397;19;20153;-90
2023/03/04 02:46:57;;;;;;;4.47;2.67;;;;;;;;;;7396011;19;20152;-92
2023/03/04 02:49:25;;;;;;;1.57;1.47;;;;;;;;;;7400563;19;20162;-93
2023/03/04 02:52:15;;;;;;;2.17;1.30;;;;;;;;;;7406238;19;20513;-93
2023/03/04 02:54:42;;;;;;;2.87;1.40;;;;;;;;;;7406462;19;20125;-90
2023/03/04 02:57:10;;;;;;;1.83;1.73;;;;;;;;;;7404617;19;20141;-91
2023/03/04 02:59:38;;;;;;;1.37;1.23;;;;;;;;;;7404437;19;20125;-93
2023/03/04 03:02:06;;;;;;;1.13;1.13;;;;;;;;;;7405795;19;20152;-91
2023/03/04 03:04:35;;;;;;;1.53;1.43;;;;;;;;;;7405537;19;20144;-94
2023/03/04 03:07:02;;;;;;;0.83;0.83;;;;;;;;;;7404658;19;20137;-91
2023/03/04 03:09:28;;;;;;;0.60;0.60;;;;;;;;;;7398202;19;20153;-92
2023/03/04 03:11:55;;;;;;;3.40;2.33;;;;;;;;;;7394000;19;20136;-92
2023/03/04 03:14:21;;;;;;;0.40;0.40;;;;;;;;;;7394971;19;20124;-91
2023/03/04 03:16:48;;;;;;;0.50;0.50;;;;;;;;;;7394485;19;20157;-91
2023/03/04 03:19:14;;;;;;;0.40;0.40;;;;;;;;;;7395666;19;20164;-90
2023/03/04 03:21:41;;;;;;;0.67;0.67;;;;;;;;;;7394645;19;20125;-92
2023/03/04 03:24:07;;;;;;;0.20;0.20;;;;;;;;;;7393334;19;20602;-90
2023/03/04 03:26:34;;;;;;;0.70;0.70;;;;;;;;;;7396706;19;20144;-93
2023/03/04 03:29:00;;;;;;;0.63;0.63;;;;;;;;;;7396157;19;20144;-93
2023/03/04 03:31:27;;;;;;;1.07;1.03;;;;;;;;;;7397127;19;20141;-92
2023/03/04 03:33:54;;;;;;;0.30;0.30;;;;;;;;;;7396777;19;20157;-92
2023/03/04 03:36:20;;;;;;;0.57;0.57;;;;;;;;;;7396719;19;20602;-90
2023/03/04 03:38:50;;;;;;;0.63;0.63;;;;;;;;;;7395467;19;20137;-91
2023/03/04 03:41:17;;;;;;;0.20;0.20;;;;;;;;;;7398622;19;20157;-91
2023/03/04 03:43:43;;;;;;;0.50;0.50;;;;;;;;;;7397410;19;20129;-91
2023/03/04 03:46:10;;;;;;;0.30;0.30;;;;;;;;;;7399250;19;20630;-93
2023/03/04 03:48:36;;;;;;;14.83;1.93;;;;;;;;;;7400160;19;20160;-93
2023/03/04 03:51:03;;;;;;;0.50;0.50;;;;;;;;;;7396831;19;20129;-92
2023/03/04 03:53:29;;;;;;;0.50;0.50;;;;;;;;;;7394429;19;20133;-92
2023/03/04 03:55:57;;;;;;;0.70;0.70;;;;;;;;;;7393612;19;20161;-93
2023/03/04 03:58:25;;;;;;;0.30;0.30;;;;;;;;;;7396480;19;20155;-92
2023/03/04 04:00:52;;;;;;;0.40;0.40;;;;;;;;;;7397007;19;20192;-93
2023/03/04 04:03:21;;;;;;;0.30;0.30;;;;;;;;;;7399617;19;20129;-93
2023/03/04 04:05:47;;;;;;;3.73;0.67;;;;;;;;;;7405300;19;20154;-93
2023/03/04 04:08:15;;;;;;;0.30;0.30;;;;;;;;;;7404325;19;20168;-94
2023/03/04 04:10:42;;;;;;;0.30;0.30;;;;;;;;;;7406730;19;20121;-91
2023/03/04 04:13:09;;;;;;;0.53;0.53;;;;;;;;;;7403518;19;20129;-93
2023/03/04 04:15:37;;;;;;;0.20;0.20;;;;;;;;;;7395957;19;20129;-91
2023/03/04 04:18:05;;;;;;;0.30;0.30;;;;;;;;;;7393875;19;20137;-92
2023/03/04 04:20:32;;;;;;;0.23;0.23;;;;;;;;;;7393344;19;20129;-90
2023/03/04 04:22:58;;;;;;;1.07;1.07;;;;;;;;;;7400073;19;20165;-92
2023/03/04 04:25:25;;;;;;;0.50;0.50;;;;;;;;;;7400024;19;20140;-92
2023/03/04 04:27:52;;;;;;;0.83;0.83;;;;;;;;;;7403415;19;20653;-90
2023/03/04 04:30:18;;;;;;;1.67;1.60;;;;;;;;;;7404386;19;20125;-92
2023/03/04 04:32:45;;;;;;;0.30;0.30;;;;;;;;;;7402520;19;20145;-89
2023/03/04 04:35:11;;;;;;;0.70;0.70;;;;;;;;;;7404098;19;20137;-93
2023/03/04 04:37:38;;;;;;;2.30;2.20;;;;;;;;;;7406223;19;20169;-93
2023/03/04 04:40:05;;;;;;;0.50;0.50;;;;;;;;;;7403113;19;20132;-89
2023/03/04 04:42:32;;;;;;;0.90;0.90;;;;;;;;;;7403509;19;20137;-92
2023/03/04 04:44:58;;;;;;;0.30;0.30;;;;;;;;;;7402105;19;20165;-93
2023/03/04 04:47:25;;;;;;;0.30;0.30;;;;;;;;;;7401225;19;20152;-93
2023/03/04 04:49:51;;;;;;;0.40;0.40;;;;;;;;;;7401754;19;20158;-91
2023/03/04 04:52:18;;;;;;;0.67;0.67;;;;;;;;;;7406286;19;20129;-92
2023/03/04 04:54:44;;;;;;;0.80;0.80;;;;;;;;;;7405846;19;20144;-90
2023/03/04 04:57:11;;;;;;;1.33;1.23;;;;;;;;;;7399715;19;20184;-93
2023/03/04 04:59:37;;;;;;;0.50;0.50;;;;;;;;;;7402197;19;20121;-94
2023/03/04 05:02:04;;;;;;;0.77;0.53;;;;;;;;;;7401959;19;20125;-91
2023/03/04 05:04:30;;;;;;;0.33;0.33;;;;;;;;;;7402443;19;20711;-89
2023/03/04 05:06:57;;;;;;;0.30;0.30;;;;;;;;;;7399547;19;20141;-91
2023/03/04 05:09:23;;;;;;;1.37;0.70;;;;;;;;;;7390525;19;20136;-92
2023/03/04 05:11:50;;;;;;;0.70;0.70;;;;;;;;;;7390847;19;20158;-90
2023/03/04 05:14:16;;;;;;;2.30;2.07;;;;;;;;;;7390943;19;20170;-92
2023/03/04 05:16:43;;;;;;;0.30;0.30;;;;;;;;;;7390877;19;20605;-91
2023/03/04 05:19:10;;;;;;;0.30;0.30;;;;;;;;;;7390971;19;20493;-93
2023/03/04 05:21:36;;;;;;;0.60;0.60;;;;;;;;;;7390816;19;20124;-92
2023/03/04 05:24:03;;;;;;;1.90;1.23;;;;;;;;;;7390336;19;20461;-92
2023/03/04 05:26:29;;;;;;;0.40;0.40;;;;;;;;;;7390388;19;20169;-92
2023/03/04 05:28:56;;;;;;;0.30;0.30;;;;;;;;;;7389478;19;20504;-93
2023/03/04 05:31:22;;;;;;;0.60;0.60;;;;;;;;;;7390066;19;20137;-91
2023/03/04 05:33:49;;;;;;;0.30;0.30;;;;;;;;;;7390058;19;20598;-92
2023/03/04 05:36:15;;;;;;;0.83;0.83;;;;;;;;;;7395770;19;20137;-94
2023/03/04 05:38:42;;;;;;;0.40;0.40;;;;;;;;;;7395111;19;20161;-93
2023/03/04 05:41:08;;;;;;;0.50;0.50;;;;;;;;;;7407657;19;20225;-91
2023/03/04 05:43:37;;;;;;;0.30;0.30;;;;;;;;;;7428087;19;20165;-91
2023/03/04 05:46:03;;;;;;;3.37;1.47;;;;;;;;;;7425492;19;20125;-92
2023/03/04 05:48:30;;;;;;;2.60;2.33;;;;;;;;;;7426239;19;20186;-92
2023/03/04 05:50:59;;;;;;;0.53;0.53;;;;;;;;;;7426426;19;20129;-90
2023/03/04 05:53:26;;;;;;;0.40;0.40;;;;;;;;;;7423146;19;20153;-92
2023/03/04 05:55:53;;;;;;;0.50;0.50;;;;;;;;;;7398332;19;20133;-93
2023/03/04 05:58:20;;;;;;;0.70;0.70;;;;;;;;;;7394863;19;20662;-92
2023/03/04 06:00:46;;;;;;;2.57;2.37;;;;;;;;;;7397561;19;20614;-93
2023/03/04 06:03:15;;;;;;;2.20;1.23;;;;;;;;;;7397372;19;20133;-93
2023/03/04 06:05:42;;;;;;;0.53;0.53;;;;;;;;;;7394267;19;20126;-92
2023/03/04 06:08:10;;;;;;;1.23;1.23;;;;;;;;;;7395018;19;20177;-93
2023/03/04 06:10:38;;;;;;;0.30;0.30;;;;;;;;;;7396435;19;20133;-92
2023/03/04 06:13:04;;;;;;;0.30;0.30;;;;;;;;;;7397583;19;20594;-88
2023/03/04 06:15:31;;;;;;;0.30;0.30;;;;;;;;;;7397346;19;20502;-88
2023/03/04 06:17:57;;;;;;;0.30;0.30;;;;;;;;;;7395438;19;20160;-88
2023/03/04 06:20:24;;;;;;;0.80;0.80;;;;;;;;;;7397842;19;20133;-91
2023/03/04 06:22:50;;;;;;;1.63;1.43;;;;;;;;;;7397113;19;20636;-90
2023/03/04 06:25:17;;;;;;;0.53;0.53;;;;;;;;;;7395828;19;20570;-92
2023/03/04 06:27:43;;;;;;;0.60;0.60;;;;;;;;;;7395699;19;20165;-93
2023/03/04 06:30:10;;;;;;;0.60;0.60;;;;;;;;;;7397184;19;20606;-92
2023/03/04 06:32:37;;;;;;;1.13;1.13;;;;;;;;;;7396208;19;20147;-90
2023/03/04 06:35:04;;;;;;;0.40;0.40;;;;;;;;;;7396713;19;20157;-91
2023/03/04 06:37:30;;;;;;;0.57;0.40;;;;;;;;;;7394834;19;20521;-92
2023/03/04 06:39:57;;;;;;;1.73;1.63;;;;;;;;;;7396719;19;20125;-92
2023/03/04 06:42:23;;;;;;;0.40;0.40;;;;;;;;;;7396325;19;20113;-91
2023/03/04 06:44:50;;;;;;;1.30;1.30;;;;;;;;;;7395387;19;20133;-89
2023/03/04 06:47:17;;;;;;;1.17;1.17;;;;;;;;;;7392596;19;20177;-90
2023/03/04 06:49:44;;;;;;;0.30;0.30;;;;;;;;;;7396033;19;20125;-91
2023/03/04 06:52:11;;;;;;;0.57;0.57;;;;;;;;;;7396095;19;20182;-92
2023/03/04 06:54:38;;;;;;;1.43;1.43;;;;;;;;;;7395586;19;20485;-93
2023/03/04 06:57:05;;;;;;;1.37;1.23;;;;;;;;;;7394793;19;20164;-89
2023/03/04 06:59:32;;;;;;;0.70;0.70;;;;;;;;;;7395735;19;20582;-90
2023/03/04 07:01:59;;;;;;;0.50;0.50;;;;;;;;;;7395636;19;20491;-89
2023/03/04 07:04:26;;;;;;;0.77;0.77;;;;;;;;;;7396873;19;20113;-89
2023/03/04 07:06:52;;;;;;;0.60;0.60;;;;;;;;;;7401530;19;20133;-90
2023/03/04 07:09:19;;;;;;;0.47;0.47;;;;;;;;;;7403078;19;20129;-92
2023/03/04 07:11:45;;;;;;;0.70;0.70;;;;;;;;;;7401337;19;20598;-91
2023/03/04 07:14:12;;;;;;;0.50;0.50;;;;;;;;;;7404059;19;20129;-91
2023/03/04 07:16:39;;;;;;;0.67;0.67;;;;;;;;;;7405872;19;20705;-91
2023/03/04 07:19:06;;;;;;;0.73;0.73;;;;;;;;;;7408469;19;20580;-92
2023/03/04 07:21:32;;;;;;;0.70;0.70;;;;;;;;;;7402680;19;20153;-91
2023/03/04 07:23:59;;;;;;;2.00;1.90;;;;;;;;;;7403672;19;20145;-89
2023/03/04 07:26:25;;;;;;;0.80;0.80;;;;;;;;;;7402270;19;20133;-93
2023/03/04 07:28:53;;;;;;;1.10;1.07;;;;;;;;;;7401757;19;20156;-93
2023/03/04 07:31:19;;;;;;;0.97;0.97;;;;;;;;;;7403140;19;20471;-93
2023/03/04 07:33:48;;;;;;;3.50;1.37;;;;;;;;;;7400692;19;20133;-91
2023/03/04 07:36:15;;;;;;;0.67;0.67;;;;;;;;;;7403802;19;20226;-92
2023/03/04 07:38:46;;;;;;;1.30;1.20;;;;;;;;;;7398261;19;20156;-91
2023/03/04 07:41:13;;;;;;;2.47;2.37;;;;;;;;;;7402140;19;20135;-92
2023/03/04 07:43:39;;;;;;;1.70;1.60;;;;;;;;;;7402107;19;20133;-91
2023/03/04 07:46:06;;;;;;;1.40;1.30;;;;;;;;;;7398362;19;20137;-93
2023/03/04 07:48:33;;;;;;;1.07;1.07;;;;;;;;;;7391420;19;20553;-92
2023/03/04 07:51:07;;;;;;;3.03;2.37;;;;;;;;;;7393606;19;20136;-92
2023/03/04 07:53:35;;;;;;;1.70;1.60;;;;;;;;;;7396220;19;20141;-93
2023/03/04 07:56:03;;;;;;;0.90;0.90;;;;;;;;;;7393110;19;20590;-94
2023/03/04 07:58:29;;;;;;;3.90;1.83;;;;;;;;;;7391533;19;20153;-89
2023/03/04 08:00:56;;;;;;;13.97;3.10;;;;;;;;;;7393524;19;20129;-92
2023/03/04 08:03:23;;;;;;;3.17;2.80;;;;;;;;;;7393164;19;20129;-91
2023/03/04 08:05:50;;;;;;;1.40;1.33;;;;;;;;;;7392275;19;20483;-93
2023/03/04 08:08:17;;;;;;;0.57;0.57;;;;;;;;;;7392226;19;20141;-93
2023/03/04 08:10:44;;;;;;;1.63;1.53;;;;;;;;;;7392644;19;20204;-94
2023/03/04 08:13:13;;;;;;;2.43;2.23;;;;;;;;;;7393427;19;20165;-93
2023/03/04 08:15:41;;;;;;;1.53;1.37;;;;;;;;;;7392305;19;20144;-93
2023/03/04 08:18:08;;;;;;;1.17;1.17;;;;;;;;;;7392572;19;20227;-93
2023/03/04 08:20:34;;;;;;;3.27;2.97;;;;;;;;;;7394106;19;20137;-90
2023/03/04 08:23:01;;;;;;;1.67;1.57;;;;;;;;;;7393198;19;20136;-93
2023/03/04 08:25:28;;;;;;;2.00;1.90;;;;;;;;;;7392904;19;20136;-93
2023/03/04 08:27:54;;;;;;;1.93;1.40;;;;;;;;;;7392514;19;20145;-92
2023/03/04 08:30:21;;;;;;;1.73;1.30;;;;;;;;;;7393002;19;20140;-93
2023/03/04 08:32:47;;;;;;;1.33;1.33;;;;;;;;;;7392621;19;20125;-91
2023/03/04 08:35:14;;;;;;;2.40;2.30;;;;;;;;;;7393096;19;20141;-93
2023/03/04 08:37:40;;;;;;;2.40;2.20;;;;;;;;;;7391884;19;20145;-93
2023/03/04 08:40:09;;;;;;;7.70;2.67;;;;;;;;;;7393209;19;20121;-93
2023/03/04 08:42:35;;;;;;;1.20;1.10;;;;;;;;;;7391881;19;20149;-92
2023/03/04 08:45:02;;;;;;;4.17;3.63;;;;;;;;;;7394142;19;20117;-92
2023/03/04 08:47:29;;;;;;;5.60;3.23;;;;;;;;;;7393721;19;20247;-91
2023/03/04 08:49:57;;;;;;;2.17;1.90;;;;;;;;;;7394093;19;20128;-92
2023/03/04 08:52:23;;;;;;;2.40;2.13;;;;;;;;;;7393334;19;20487;-92
2023/03/04 08:54:50;;;;;;;2.20;2.03;;;;;;;;;;7392738;19;20125;-91
2023/03/04 08:57:16;;;;;;;1.50;1.40;;;;;;;;;;7392305;19;20176;-90
2023/03/04 08:59:43;;;;;;;3.43;2.90;;;;;;;;;;7391495;19;20157;-92
2023/03/04 09:02:09;;;;;;;3.80;2.57;;;;;;;;;;7392186;19;20128;-92
2023/03/04 09:04:36;;;;;;;3.27;3.00;;;;;;;;;;7392597;19;20149;-93
2023/03/04 09:07:03;;;;;;;5.27;2.60;;;;;;;;;;7390299;19;20141;-92
2023/03/04 09:09:29;;;;;;;2.50;1.90;;;;;;;;;;7390875;19;20157;-92
2023/03/04 09:11:56;;;;;;;5.93;3.83;;;;;;;;;;7391460;19;20161;-93
2023/03/04 09:14:23;;;;;;;2.27;2.07;;;;;;;;;;7396102;19;20133;-92
2023/03/04 09:16:49;;;;;;;2.70;2.43;;;;;;;;;;7391542;19;20153;-90
2023/03/04 09:19:16;;;;;;;2.57;2.37;;;;;;;;;;7393559;19;20556;-90
2023/03/04 09:21:43;;;;;;;1.70;1.60;;;;;;;;;;7394816;19;20141;-92
2023/03/04 09:24:09;;;;;;;3.70;3.40;;;;;;;;;;7395516;19;20137;-91
2023/03/04 09:26:36;;;;;;;1.07;1.07;;;;;;;;;;7390549;19;20157;-92
2023/03/04 09:29:03;;;;;;;1.53;1.43;;;;;;;;;;7391700;19;20129;-90
2023/03/04 09:31:29;;;;;;;3.80;2.83;;;;;;;;;;7392476;19;20133;-88
2023/03/04 09:33:57;;;;;;;6.33;2.37;;;;;;;;;;7391183;19;20125;-90
2023/03/04 09:36:24;;;;;;;3.60;2.40;;;;;;;;;;7392535;19;20137;-91
2023/03/04 09:39:00;;;;;;;4.57;2.87;;;;;;;;;;7390273;19;20160;-90
2023/03/04 09:41:56;;;;;;;2.50;2.40;;;;;;;;;;7393586;19;20160;-90
2023/03/04 09:44:22;;;;;;;3.03;1.97;;;;;;;;;;7392800;19;20172;-89
2023/03/04 09:46:50;;;;;;;2.30;1.60;;;;;;;;;;7392148;19;20125;-89
2023/03/04 09:49:18;;;;;;;2.90;2.70;;;;;;;;;;7393447;19;20133;-90
2023/03/04 09:51:54;;;;;;;2.57;2.23;;;;;;;;;;7393344;19;20158;-88
2023/03/04 09:54:36;;;;;;;2.13;2.03;;;;;;;;;;7392393;19;20129;-89
2023/03/04 09:57:20;;;;;;;5.20;4.80;;;;;;;;;;7392428;19;20141;-91
2023/03/04 09:59:52;;;;;;;5.43;2.67;;;;;;;;;;7393578;19;20129;-88
2023/03/04 10:02:43;;;;;;;2.47;2.37;;;;;;;;;;7395317;19;20165;-88
2023/03/04 10:05:15;;;;;;;4.70;3.80;;;;;;;;;;7395369;19;20133;-88
2023/03/04 10:07:46;;;;;;;3.77;3.40;;;;;;;;;;7393329;19;20197;-89
2023/03/04 10:10:34;;;;;;;3.80;3.40;;;;;;;;;;7392379;19;20633;-91
2023/03/04 10:13:02;;;;;;;2.73;2.60;;;;;;;;;;7392213;19;20141;-88
2023/03/04 10:15:34;;;;;;;9.80;4.13;;;;;;;;;;7389331;19;20140;-89
2023/03/04 10:18:24;;;;;;;2.80;2.53;;;;;;;;;;7388006;19;20153;-89
2023/03/04 10:20:57;;;;;;;2.27;2.17;;;;;;;;;;7389437;19;20136;-89
2023/03/04 10:23:26;;;;;;;3.80;3.50;;;;;;;;;;7394852;19;20135;-91
2023/03/04 10:25:54;;;;;;;3.50;3.23;;;;;;;;;;7396463;19;20125;-90
2023/03/04 10:28:26;;;;;;;1.97;1.87;;;;;;;;;;7394801;19;20156;-90
2023/03/04 10:31:30;;;;;;;4.97;4.67;;;;;;;;;;7401271;19;20129;-92
2023/03/04 10:33:59;;;;;;;3.40;3.00;;;;;;;;;;7402268;19;20145;-87
2023/03/04 10:36:29;;;;;;;5.77;4.80;;;;;;;;;;7403183;19;20125;-88
2023/03/04 10:39:08;;;;;;;6.27;3.20;;;;;;;;;;7400191;19;20157;-86
2023/03/04 10:41:35;;;;;;;4.97;3.27;;;;;;;;;;7400264;19;20157;-88
2023/03/04 10:44:03;;;;;;;4.60;3.23;;;;;;;;;;7400271;19;20198;-84
2023/03/04 10:46:31;;;;;;;4.83;4.30;;;;;;;;;;7423127;19;20125;-91
2023/03/04 10:48:58;;;;;;;4.63;3.87;;;;;;;;;;7425693;19;20160;-90
2023/03/04 10:51:27;;;;;;;10.50;5.60;;;;;;;;;;7428730;19;20121;-91
2023/03/04 10:54:07;;;;;;;5.57;5.17;;;;;;;;;;7430127;19;20168;-86
2023/03/04 10:56:45;;;;;;;4.20;3.90;;;;;;;;;;7427934;19;20142;-86
2023/03/04 10:59:24;;;;;;;5.80;3.43;;;;;;;;;;7428219;19;20117;-88
2023/03/04 11:01:52;;;;;;;7.68;4.53;;;;;;;;;;7422448;19;20146;-85
2023/03/04 11:04:24;;;;;;;5.28;3.17;;;;;;;;;;7404874;19;20180;-85
2023/03/04 11:06:51;;;;;;;4.07;3.55;;;;;;;;;;7401779;19;20133;-85
2023/03/04 11:09:29;;;;;;;3.83;3.58;;;;;;;;;;7402127;19;20489;-85
2023/03/04 11:12:00;;;;;;;6.57;4.20;;;;;;;;;;7400672;19;20156;-84
2023/03/04 11:14:30;;;;;;;3.45;3.15;;;;;;;;;;7402388;19;20157;-85
2023/03/04 11:16:59;;;;;;;3.33;2.85;;;;;;;;;;7401226;19;20164;-86
2023/03/04 11:19:40;;;;;;;4.13;3.72;;;;;;;;;;7398054;19;20125;-85
2023/03/04 11:22:09;;;;;;;4.45;4.10;;;;;;;;;;7395172;19;20136;-84
2023/03/04 11:24:36;;;;;;;5.40;5.05;;;;;;;;;;7393386;19;20125;-86
2023/03/04 11:27:17;;;;;;;7.00;4.30;;;;;;;;;;7390741;19;20290;-85
2023/03/04 11:29:54;;;;;;;8.52;3.90;;;;;;;;;;7390924;19;20126;-85
2023/03/04 11:32:23;;;;;;;4.45;4.15;;;;;;;;;;7395777;19;20129;-85
2023/03/04 11:35:17;;;;;;;3.92;3.58;;;;;;;;;;7393088;19;20132;-85
2023/03/04 11:37:53;;;;;;;5.38;4.28;;;;;;;;;;7396301;19;20490;-85
2023/03/04 11:40:25;;;;;;;5.00;4.30;;;;;;;;;;7387555;19;20133;-87
2023/03/04 11:42:56;;;;;;;3.78;3.47;;;;;;;;;;7390908;19;20133;-87
2023/03/04 11:45:25;;;;;;;17.15;4.90;;;;;;;;;;7390674;19;20132;-86
2023/03/04 11:47:59;;;;;;;5.40;4.25;;;;;;;;;;7390388;19;20168;-87
2023/03/04 11:50:50;;;;;;;6.22;3.45;;;;;;;;;;7390148;19;20481;-86
2023/03/04 11:53:29;;;;;;;3.83;3.53;;;;;;;;;;7387957;19;20568;-86
2023/03/04 11:56:10;;;;;;;5.00;4.60;;;;;;;;;;7389908;19;20166;-86
2023/03/04 11:59:24;;;;;;;4.13;3.78;;;;;;;;;;7384335;19;20165;-86
2023/03/04 12:01:50;;;;;;;3.70;3.20;;;;;;;;;;7385191;19;20140;-87
2023/03/04 12:04:51;;;;;;;4.47;4.03;;;;;;;;;;7392835;19;20145;-86
2023/03/04 12:07:45;;;;;;;5.85;4.18;;;;;;;;;;7392658;19;20232;-87
2023/03/04 12:10:18;;;;;;;4.07;3.72;;;;;;;;;;7394268;19;20121;-86
2023/03/04 12:12:55;;;;;;;2.58;2.40;;;;;;;;;;7396053;19;20229;-87
2023/03/04 12:15:28;;;;;;;4.13;3.65;;;;;;;;;;7395047;19;20148;-87
2023/03/04 12:18:32;;;;;;;5.78;3.58;;;;;;;;;;7388520;19;20166;-86
2023/03/04 12:21:13;;;;;;;6.22;3.58;;;;;;;;;;7389889;19;20133;-89
2023/03/04 12:23:52;;;;;;;4.90;4.50;;;;;;;;;;7393319;19;20157;-86
2023/03/04 12:26:35;;;;;;;4.10;3.88;;;;;;;;;;7393137;19;20141;-88
2023/03/04 12:29:03;;;;;;;3.35;3.13;;;;;;;;;;7393038;19;20132;-88
2023/03/04 12:31:35;;;;;;;6.38;3.97;;;;;;;;;;7390902;19;20633;-86
2023/03/04 12:34:11;;;;;;;2.90;2.70;;;;;;;;;;7393132;19;20136;-87
2023/03/04 12:36:41;;;;;;;3.20;3.00;;;;;;;;;;7394303;19;20136;-86
2023/03/04 12:39:17;;;;;;;6.45;4.80;;;;;;;;;;7391771;19;20157;-86
2023/03/04 12:42:01;;;;;;;4.97;4.40;;;;;;;;;;7390840;19;20117;-87
2023/03/04 12:44:32;;;;;;;4.03;3.40;;;;;;;;;;7388902;19;20133;-88
2023/03/04 12:47:07;;;;;;;9.30;3.22;;;;;;;;;;7390700;19;20686;-88
2023/03/04 12:49:40;;;;;;;7.32;4.88;;;;;;;;;;7391924;19;20136;-88
2023/03/04 12:52:13;;;;;;;6.05;3.83;;;;;;;;;;7394517;19;20129;-88
2023/03/04 12:54:43;;;;;;;3.33;2.92;;;;;;;;;;7394924;19;20141;-87
2023/03/04 12:57:13;;;;;;;4.97;4.47;;;;;;;;;;7394740;19;20634;-87
2023/03/04 13:00:04;;;;;;;4.85;4.38;;;;;;;;;;7391196;19;20133;-87
2023/03/04 13:02:52;;;;;;;3.65;3.25;;;;;;;;;;7390802;19;20133;-87
2023/03/04 13:05:37;;;;;;;4.53;4.13;;;;;;;;;;7390445;19;20212;-88
2023/03/04 13:08:15;;;;;;;3.50;3.25;;;;;;;;;;7390712;19;20175;-88
2023/03/04 13:10:41;;;;;;;4.75;3.85;;;;;;;;;;7393844;19;20132;-88
2023/03/04 13:13:35;;;;;;;2.47;2.33;;;;;;;;;;7393056;19;20227;-89
2023/03/04 13:16:23;;;;;;;5.90;4.78;;;;;;;;;;7393097;19;20137;-88
2023/03/04 13:18:50;;;;;;;4.32;3.92;;;;;;;;;;7388066;19;20177;-88
2023/03/04 13:21:22;;;;;;;3.13;2.83;;;;;;;;;;7392051;19;20157;-88
2023/03/04 13:23:50;;;;;;;4.18;3.80;;;;;;;;;;7392713;19;20145;-88
2023/03/04 13:26:29;;;;;;;4.10;3.78;;;;;;;;;;7391676;19;20129;-88
2023/03/04 13:29:15;;;;;;;7.00;4.55;;;;;;;;;;7390077;19;20188;-89
2023/03/04 13:32:02;;;;;;;3.20;2.70;;;;;;;;;;7391247;19;20490;-88
2023/03/04 13:34:48;;;;;;;2.80;2.58;;;;;;;;;;7390296;19;20125;-87
2023/03/04 13:37:31;;;;;;;2.70;2.58;;;;;;;;;;7389176;19;20173;-88
2023/03/04 13:40:23;;;;;;;3.65;2.95;;;;;;;;;;7390698;19;20817;-88
2023/03/04 13:42:49;;;;;;;3.08;2.92;;;;;;;;;;7393019;19;20140;-88
2023/03/04 13:45:37;;;;;;;6.88;3.92;;;;;;;;;;7389201;19;20149;-89
2023/03/04 13:48:22;;;;;;;3.42;3.13;;;;;;;;;;7389651;19;20141;-87
2023/03/04 13:50:50;;;;;;;3.33;2.95;;;;;;;;;;7391243;19;20141;-88
2023/03/04 13:53:38;;;;;;;4.30;3.90;;;;;;;;;;7393788;19;20130;-87
2023/03/04 13:56:11;;;;;;;4.15;3.70;;;;;;;;;;7394102;19;20636;-87
2023/03/04 13:58:38;;;;;;;5.03;4.63;;;;;;;;;;7397942;19;20248;-86
2023/03/04 14:01:06;;;;;;;4.97;4.13;;;;;;;;;;7399920;19;20161;-86
2023/03/04 14:03:33;;;;;;;3.15;2.95;;;;;;;;;;7400321;19;20133;-87
2023/03/04 14:06:10;;;;;;;4.25;3.95;;;;;;;;;;7400926;19;20586;-87
2023/03/04 14:08:37;;;;;;;3.55;3.22;;;;;;;;;;7399065;19;20148;-87
2023/03/04 14:11:03;;;;;;;3.25;2.85;;;;;;;;;;7400422;19;20160;-87
2023/03/04 14:13:30;;;;;;;2.75;2.55;;;;;;;;;;7401018;19;20153;-87
2023/03/04 14:15:58;;;;;;;3.22;3.03;;;;;;;;;;7401198;19;20125;-87
2023/03/04 14:18:25;;;;;;;2.35;2.25;;;;;;;;;;7395617;19;20153;-87
2023/03/04 14:20:58;;;;;;;2.63;2.42;;;;;;;;;;7399633;19;20153;-86
2023/03/04 14:23:34;;;;;;;3.78;2.83;;;;;;;;;;7394646;19;20201;-87
2023/03/04 14:26:12;;;;;;;4.60;3.53;;;;;;;;;;7394895;19;20136;-89
2023/03/04 14:28:48;;;;;;;1.92;1.83;;;;;;;;;;7390079;19;20158;-87
2023/03/04 14:31:17;;;;;;;2.53;2.33;;;;;;;;;;7397422;19;20160;-87
2023/03/04 14:33:46;;;;;;;3.33;3.03;;;;;;;;;;7395590;19;20136;-87
2023/03/04 14:36:23;;;;;;;2.72;2.53;;;;;;;;;;7398104;19;20140;-87
2023/03/04 14:38:54;;;;;;;5.00;3.20;;;;;;;;;;7395930;19;20155;-87
2023/03/04 14:41:34;;;;;;;7.13;3.38;;;;;;;;;;7401917;19;20137;-87
2023/03/04 14:44:19;;;;;;;2.55;2.38;;;;;;;;;;7399659;19;20133;-88
2023/03/04 14:46:48;;;;;;;2.47;2.28;;;;;;;;;;7403930;19;20930;-89
2023/03/04 14:49:34;;;;;;;6.82;3.30;;;;;;;;;;7398718;19;20128;-89
2023/03/04 14:52:01;;;;;;;3.75;2.97;;;;;;;;;;7399948;19;20479;-88
2023/03/04 14:54:30;;;;;;;5.55;3.17;;;;;;;;;;7400345;19;20133;-88
2023/03/04 14:56:57;;;;;;;2.95;2.75;;;;;;;;;;7400548;19;20133;-88
2023/03/04 14:59:32;;;;;;;3.47;2.92;;;;;;;;;;7398489;19;20141;-88
2023/03/04 15:02:20;;;;;;;4.35;2.70;;;;;;;;;;7400128;19;20171;-87